Terminal Aerodrome Forecast
Issued by NWS

Home | Current Version | Previous Version | Text Only | Print | Product List | Glossary On
Versions: 1 2 3 4 5 6 7 8 9 10 11 12 13 14 15 16 17 18 19 20 21 22 23 24 25 26 27 28 29
000
FTUS41 KBUF 161700
TAFIAG
TAF
KIAG 161731Z 1618/1718 32008KT P6SM FEW045 FEW250
     FM162300 VRB03KT P6SM FEW250
     FM170500 11006KT P6SM SCT150
     FM171700 15009KT P6SM SCT200=

USA.gov is the U.S. government's official web portal to all federal, state and local government web resources and services.